sensor_id;sensor_type;location;lat;lon;timestamp;pressure;altitude;pressure_sealevel;temperature;humidity
38197;BME280;26543;51.976;4.616;2023-08-06T00:00:16;52804.81;;;-140.72;100.00
38197;BME280;26543;51.976;4.616;2023-08-06T00:02:41;52786.56;;;-140.72;100.00
38197;BME280;26543;51.976;4.616;2023-08-06T00:05:06;52762.22;;;-140.72;100.00
38197;BME280;26543;51.976;4.616;2023-08-06T00:07:32;52782.50;;;-140.72;100.00
38197;BME280;26543;51.976;4.616;2023-08-06T00:09:57;52748.00;;;-140.72;100.00
38197;BME280;26543;51.976;4.616;2023-08-06T00:12:22;52796.72;;;-140.72;100.00
38197;BME280;26543;51.976;4.616;2023-08-06T00:14:51;52774.38;;;-140.72;100.00
38197;BME280;26543;51.976;4.616;2023-08-06T00:17:16;52804.81;;;-140.72;100.00
38197;BME280;26543;51.976;4.616;2023-08-06T00:19:42;52796.72;;;-140.72;100.00
38197;BME280;26543;51.976;4.616;2023-08-06T00:22:07;52760.19;;;-140.72;100.00
38197;BME280;26543;51.976;4.616;2023-08-06T00:24:32;52784.53;;;-140.72;100.00
38197;BME280;26543;51.976;4.616;2023-08-06T00:26:58;52788.59;;;-140.72;100.00
38197;BME280;26543;51.976;4.616;2023-08-06T00:29:23;52760.19;;;-140.72;100.00
38197;BME280;26543;51.976;4.616;2023-08-06T00:31:48;52762.22;;;-140.72;100.00
38197;BME280;26543;51.976;4.616;2023-08-06T00:34:13;52790.63;;;-140.72;100.00
38197;BME280;26543;51.976;4.616;2023-08-06T00:36:39;52784.53;;;-140.72;100.00
38197;BME280;26543;51.976;4.616;2023-08-06T00:39:04;52760.19;;;-140.72;100.00
38197;BME280;26543;51.976;4.616;2023-08-06T00:41:29;52760.19;;;-140.72;100.00
38197;BME280;26543;51.976;4.616;2023-08-06T00:43:54;52741.91;;;-140.72;100.00
38197;BME280;26543;51.976;4.616;2023-08-06T00:46:20;52782.50;;;-140.72;100.00
38197;BME280;26543;51.976;4.616;2023-08-06T00:48:45;52806.84;;;-140.72;100.00
38197;BME280;26543;51.976;4.616;2023-08-06T00:51:11;52768.28;;;-140.72;100.00
38197;BME280;26543;51.976;4.616;2023-08-06T00:53:39;52782.50;;;-140.72;100.00
38197;BME280;26543;51.976;4.616;2023-08-06T00:56:05;52784.53;;;-140.72;100.00
38197;BME280;26543;51.976;4.616;2023-08-06T00:58:31;52774.38;;;-140.72;100.00
38197;BME280;26543;51.976;4.616;2023-08-06T01:00:56;52754.09;;;-140.72;100.00
38197;BME280;26543;51.976;4.616;2023-08-06T01:03:22;52772.34;;;-140.72;100.00
38197;BME280;26543;51.976;4.616;2023-08-06T01:05:47;52776.41;;;-140.72;100.00
38197;BME280;26543;51.976;4.616;2023-08-06T01:15:56;52782.50;;;-140.72;100.00
38197;BME280;26543;51.976;4.616;2023-08-06T01:18:23;52739.88;;;-140.72;100.00
38197;BME280;26543;51.976;4.616;2023-08-06T01:20:48;52768.28;;;-140.72;100.00
38197;BME280;26543;51.976;4.616;2023-08-06T01:23:15;52768.28;;;-140.72;100.00
38197;BME280;26543;51.976;4.616;2023-08-06T01:25:45;52764.25;;;-140.72;100.00
38197;BME280;26543;51.976;4.616;2023-08-06T01:28:15;52760.19;;;-140.72;100.00
38197;BME280;26543;51.976;4.616;2023-08-06T01:30:42;52743.94;;;-140.72;100.00
38197;BME280;26543;51.976;4.616;2023-08-06T01:33:07;52750.03;;;-140.72;100.00
38197;BME280;26543;51.976;4.616;2023-08-06T01:35:34;52806.84;;;-140.72;100.00
38197;BME280;26543;51.976;4.616;2023-08-06T01:38:00;52741.91;;;-140.72;100.00
38197;BME280;26543;51.976;4.616;2023-08-06T01:40:26;52774.38;;;-140.72;100.00
38197;BME280;26543;51.976;4.616;2023-08-06T01:42:53;52782.50;;;-140.72;100.00
38197;BME280;26543;51.976;4.616;2023-08-06T01:45:18;52776.41;;;-140.72;100.00
38197;BME280;26543;51.976;4.616;2023-08-06T01:47:44;52798.72;;;-140.72;100.00
38197;BME280;26543;51.976;4.616;2023-08-06T01:50:09;52776.41;;;-140.72;100.00
38197;BME280;26543;51.976;4.616;2023-08-06T01:52:34;52780.47;;;-140.72;100.00
38197;BME280;26543;51.976;4.616;2023-08-06T01:54:59;52778.44;;;-140.72;100.00
38197;BME280;26543;51.976;4.616;2023-08-06T01:57:24;52812.94;;;-140.72;100.00
38197;BME280;26543;51.976;4.616;2023-08-06T01:59:50;52741.91;;;-140.72;100.00
38197;BME280;26543;51.976;4.616;2023-08-06T02:02:15;52788.59;;;-140.72;100.00
38197;BME280;26543;51.976;4.616;2023-08-06T02:04:40;52792.66;;;-140.72;100.00
38197;BME280;26543;51.976;4.616;2023-08-06T02:07:05;52784.53;;;-140.72;100.00
38197;BME280;26543;51.976;4.616;2023-08-06T02:09:31;52766.25;;;-140.72;100.00
38197;BME280;26543;51.976;4.616;2023-08-06T02:11:56;52788.59;;;-140.72;100.00
38197;BME280;26543;51.976;4.616;2023-08-06T02:14:21;52780.47;;;-140.72;100.00
38197;BME280;26543;51.976;4.616;2023-08-06T02:16:46;52784.53;;;-140.72;100.00
38197;BME280;26543;51.976;4.616;2023-08-06T02:19:12;52788.59;;;-140.72;100.00
38197;BME280;26543;51.976;4.616;2023-08-06T02:21:37;52802.78;;;-140.72;100.00
38197;BME280;26543;51.976;4.616;2023-08-06T02:24:02;52766.25;;;-140.72;100.00
38197;BME280;26543;51.976;4.616;2023-08-06T02:26:28;52776.41;;;-140.72;100.00
38197;BME280;26543;51.976;4.616;2023-08-06T02:28:53;52782.50;;;-140.72;100.00
38197;BME280;26543;51.976;4.616;2023-08-06T02:31:18;52760.19;;;-140.72;100.00
38197;BME280;26543;51.976;4.616;2023-08-06T02:33:43;52800.75;;;-140.72;100.00
38197;BME280;26543;51.976;4.616;2023-08-06T02:36:09;52772.34;;;-140.72;100.00
38197;BME280;26543;51.976;4.616;2023-08-06T02:38:34;52776.41;;;-140.72;100.00
38197;BME280;26543;51.976;4.616;2023-08-06T02:41:01;52806.84;;;-140.72;100.00
38197;BME280;26543;51.976;4.616;2023-08-06T02:43:27;52784.53;;;-140.72;100.00
38197;BME280;26543;51.976;4.616;2023-08-06T02:45:52;52780.47;;;-140.72;100.00
38197;BME280;26543;51.976;4.616;2023-08-06T02:48:17;52814.97;;;-140.72;100.00
38197;BME280;26543;51.976;4.616;2023-08-06T02:50:43;52794.69;;;-140.72;100.00
38197;BME280;26543;51.976;4.616;2023-08-06T02:53:09;52760.19;;;-140.72;100.00
38197;BME280;26543;51.976;4.616;2023-08-06T02:55:35;52774.38;;;-140.72;100.00
38197;BME280;26543;51.976;4.616;2023-08-06T02:58:01;52776.41;;;-140.72;100.00
38197;BME280;26543;51.976;4.616;2023-08-06T03:00:26;52764.25;;;-140.72;100.00
38197;BME280;26543;51.976;4.616;2023-08-06T03:02:52;52780.47;;;-140.72;100.00
38197;BME280;26543;51.976;4.616;2023-08-06T03:05:17;52821.06;;;-140.72;100.00
38197;BME280;26543;51.976;4.616;2023-08-06T03:07:42;52774.38;;;-140.72;100.00
38197;BME280;26543;51.976;4.616;2023-08-06T03:10:08;52794.69;;;-140.72;100.00
38197;BME280;26543;51.976;4.616;2023-08-06T03:12:33;52780.47;;;-140.72;100.00
38197;BME280;26543;51.976;4.616;2023-08-06T03:14:58;52806.84;;;-140.72;100.00
38197;BME280;26543;51.976;4.616;2023-08-06T03:17:24;52804.81;;;-140.72;100.00
38197;BME280;26543;51.976;4.616;2023-08-06T03:19:49;52827.16;;;-140.72;100.00
38197;BME280;26543;51.976;4.616;2023-08-06T03:22:14;52758.16;;;-140.72;100.00
38197;BME280;26543;51.976;4.616;2023-08-06T03:24:39;52796.72;;;-140.72;100.00
38197;BME280;26543;51.976;4.616;2023-08-06T03:27:05;52774.38;;;-140.72;100.00
38197;BME280;26543;51.976;4.616;2023-08-06T03:29:30;52823.09;;;-140.72;100.00
38197;BME280;26543;51.976;4.616;2023-08-06T03:31:55;52780.47;;;-140.72;100.00
38197;BME280;26543;51.976;4.616;2023-08-06T03:34:20;52808.88;;;-140.72;100.00
38197;BME280;26543;51.976;4.616;2023-08-06T03:36:46;52788.59;;;-140.72;100.00
38197;BME280;26543;51.976;4.616;2023-08-06T03:39:11;52782.50;;;-140.72;100.00
38197;BME280;26543;51.976;4.616;2023-08-06T03:41:36;52812.94;;;-140.72;100.00
38197;BME280;26543;51.976;4.616;2023-08-06T03:44:01;52814.97;;;-140.72;100.00
38197;BME280;26543;51.976;4.616;2023-08-06T03:46:28;52780.47;;;-140.72;100.00
38197;BME280;26543;51.976;4.616;2023-08-06T03:48:54;52821.06;;;-140.72;100.00
38197;BME280;26543;51.976;4.616;2023-08-06T03:51:19;52788.59;;;-140.72;100.00
38197;BME280;26543;51.976;4.616;2023-08-06T03:53:44;52823.09;;;-140.72;100.00
38197;BME280;26543;51.976;4.616;2023-08-06T03:56:10;52833.22;;;-140.72;100.00
38197;BME280;26543;51.976;4.616;2023-08-06T03:58:35;52798.72;;;-140.72;100.00
38197;BME280;26543;51.976;4.616;2023-08-06T04:01:00;52810.91;;;-140.72;100.00
38197;BME280;26543;51.976;4.616;2023-08-06T04:03:26;52808.88;;;-140.72;100.00
38197;BME280;26543;51.976;4.616;2023-08-06T04:05:52;52812.94;;;-140.72;100.00
38197;BME280;26543;51.976;4.616;2023-08-06T04:08:17;52821.06;;;-140.72;100.00
38197;BME280;26543;51.976;4.616;2023-08-06T04:10:42;52837.28;;;-140.72;100.00
38197;BME280;26543;51.976;4.616;2023-08-06T04:13:07;52857.59;;;-140.72;100.00
38197;BME280;26543;51.976;4.616;2023-08-06T04:15:33;52847.44;;;-140.72;100.00
38197;BME280;26543;51.976;4.616;2023-08-06T04:17:58;52845.41;;;-140.72;100.00
38197;BME280;26543;51.976;4.616;2023-08-06T04:20:24;52812.94;;;-140.72;100.00
38197;BME280;26543;51.976;4.616;2023-08-06T04:22:49;52853.53;;;-140.72;100.00
38197;BME280;26543;51.976;4.616;2023-08-06T04:25:14;52835.25;;;-140.72;100.00
38197;BME280;26543;51.976;4.616;2023-08-06T04:27:39;52812.94;;;-140.72;100.00
38197;BME280;26543;51.976;4.616;2023-08-06T04:30:07;52831.19;;;-140.72;100.00
38197;BME280;26543;51.976;4.616;2023-08-06T04:32:32;52829.19;;;-140.72;100.00
38197;BME280;26543;51.976;4.616;2023-08-06T04:34:57;52800.75;;;-140.72;100.00
38197;BME280;26543;51.976;4.616;2023-08-06T04:37:23;52855.56;;;-140.72;100.00
38197;BME280;26543;51.976;4.616;2023-08-06T04:39:48;52833.22;;;-140.72;100.00
38197;BME280;26543;51.976;4.616;2023-08-06T04:42:13;52829.19;;;-140.72;100.00
38197;BME280;26543;51.976;4.616;2023-08-06T04:44:39;52784.53;;;-140.72;100.00
38197;BME280;26543;51.976;4.616;2023-08-06T04:47:04;52833.22;;;-140.72;100.00
38197;BME280;26543;51.976;4.616;2023-08-06T04:49:29;52817.00;;;-140.72;100.00
38197;BME280;26543;51.976;4.616;2023-08-06T04:51:54;52861.66;;;-140.72;100.00
38197;BME280;26543;51.976;4.616;2023-08-06T04:54:20;52845.41;;;-140.72;100.00
38197;BME280;26543;51.976;4.616;2023-08-06T04:56:45;52847.44;;;-140.72;100.00
38197;BME280;26543;51.976;4.616;2023-08-06T04:59:10;52841.34;;;-140.72;100.00
38197;BME280;26543;51.976;4.616;2023-08-06T05:01:35;52812.94;;;-140.72;100.00
38197;BME280;26543;51.976;4.616;2023-08-06T05:04:01;52823.09;;;-140.72;100.00
38197;BME280;26543;51.976;4.616;2023-08-06T05:06:26;52823.09;;;-140.72;100.00
38197;BME280;26543;51.976;4.616;2023-08-06T05:08:51;52806.84;;;-140.72;100.00
38197;BME280;26543;51.976;4.616;2023-08-06T05:11:16;52829.19;;;-140.72;100.00
38197;BME280;26543;51.976;4.616;2023-08-06T05:13:42;52806.84;;;-140.72;100.00
38197;BME280;26543;51.976;4.616;2023-08-06T05:16:07;52833.22;;;-140.72;100.00
38197;BME280;26543;51.976;4.616;2023-08-06T05:18:32;52825.13;;;-140.72;100.00
38197;BME280;26543;51.976;4.616;2023-08-06T05:20:59;52808.88;;;-140.72;100.00
38197;BME280;26543;51.976;4.616;2023-08-06T05:23:24;52837.28;;;-140.72;100.00
38197;BME280;26543;51.976;4.616;2023-08-06T05:25:49;52796.72;;;-140.72;100.00
38197;BME280;26543;51.976;4.616;2023-08-06T05:28:15;52802.78;;;-140.72;100.00
38197;BME280;26543;51.976;4.616;2023-08-06T05:30:40;52800.75;;;-140.72;100.00
38197;BME280;26543;51.976;4.616;2023-08-06T05:33:05;52794.69;;;-140.72;100.00
38197;BME280;26543;51.976;4.616;2023-08-06T05:35:31;52804.81;;;-140.72;100.00
38197;BME280;26543;51.976;4.616;2023-08-06T05:37:56;52823.09;;;-140.72;100.00
38197;BME280;26543;51.976;4.616;2023-08-06T05:40:21;52784.53;;;-140.72;100.00
38197;BME280;26543;51.976;4.616;2023-08-06T05:42:47;52794.69;;;-140.72;100.00
38197;BME280;26543;51.976;4.616;2023-08-06T05:45:12;52782.50;;;-140.72;100.00
38197;BME280;26543;51.976;4.616;2023-08-06T05:47:37;52812.94;;;-140.72;100.00
38197;BME280;26543;51.976;4.616;2023-08-06T05:50:02;52827.16;;;-140.72;100.00
38197;BME280;26543;51.976;4.616;2023-08-06T05:52:28;52792.66;;;-140.72;100.00
38197;BME280;26543;51.976;4.616;2023-08-06T05:54:53;52798.72;;;-140.72;100.00
38197;BME280;26543;51.976;4.616;2023-08-06T05:57:20;52796.72;;;-140.72;100.00
38197;BME280;26543;51.976;4.616;2023-08-06T05:59:45;52804.81;;;-140.72;100.00
38197;BME280;26543;51.976;4.616;2023-08-06T06:02:10;52804.81;;;-140.72;100.00
38197;BME280;26543;51.976;4.616;2023-08-06T06:04:36;52810.91;;;-140.72;100.00
38197;BME280;26543;51.976;4.616;2023-08-06T06:07:01;52812.94;;;-140.72;100.00
38197;BME280;26543;51.976;4.616;2023-08-06T06:09:27;52833.22;;;-140.72;100.00
38197;BME280;26543;51.976;4.616;2023-08-06T06:11:52;52772.34;;;-140.72;100.00
38197;BME280;26543;51.976;4.616;2023-08-06T06:14:18;52786.56;;;-140.72;100.00
38197;BME280;26543;51.976;4.616;2023-08-06T06:16:43;52808.88;;;-140.72;100.00
38197;BME280;26543;51.976;4.616;2023-08-06T06:19:09;52782.50;;;-140.72;100.00
38197;BME280;26543;51.976;4.616;2023-08-06T06:21:34;52804.81;;;-140.72;100.00
38197;BME280;26543;51.976;4.616;2023-08-06T06:23:59;52796.72;;;-140.72;100.00
38197;BME280;26543;51.976;4.616;2023-08-06T06:26:24;52782.50;;;-140.72;100.00
38197;BME280;26543;51.976;4.616;2023-08-06T06:28:50;52808.88;;;-140.72;100.00
38197;BME280;26543;51.976;4.616;2023-08-06T06:31:15;52821.06;;;-140.72;100.00
38197;BME280;26543;51.976;4.616;2023-08-06T06:33:40;52794.69;;;-140.72;100.00
38197;BME280;26543;51.976;4.616;2023-08-06T06:36:06;52792.66;;;-140.72;100.00
38197;BME280;26543;51.976;4.616;2023-08-06T06:38:32;52792.66;;;-140.72;100.00
38197;BME280;26543;51.976;4.616;2023-08-06T06:40:58;52782.50;;;-140.72;100.00
38197;BME280;26543;51.976;4.616;2023-08-06T06:43:23;52810.91;;;-140.72;100.00
38197;BME280;26543;51.976;4.616;2023-08-06T06:45:52;52786.56;;;-140.72;100.00
38197;BME280;26543;51.976;4.616;2023-08-06T06:48:17;52756.13;;;-140.72;100.00
38197;BME280;26543;51.976;4.616;2023-08-06T06:50:43;52821.06;;;-140.72;100.00
38197;BME280;26543;51.976;4.616;2023-08-06T06:53:11;52770.31;;;-140.72;100.00
38197;BME280;26543;51.976;4.616;2023-08-06T06:55:37;52829.19;;;-140.72;100.00
38197;BME280;26543;51.976;4.616;2023-08-06T06:58:02;52808.88;;;-140.72;100.00
38197;BME280;26543;51.976;4.616;2023-08-06T07:00:27;52743.94;;;-140.72;100.00
38197;BME280;26543;51.976;4.616;2023-08-06T07:02:52;52794.69;;;-140.72;100.00
38197;BME280;26543;51.976;4.616;2023-08-06T07:05:17;52786.56;;;-140.72;100.00
38197;BME280;26543;51.976;4.616;2023-08-06T07:07:43;52788.59;;;-140.72;100.00
38197;BME280;26543;51.976;4.616;2023-08-06T07:10:08;52774.38;;;-140.72;100.00
38197;BME280;26543;51.976;4.616;2023-08-06T07:12:33;52800.75;;;-140.72;100.00
38197;BME280;26543;51.976;4.616;2023-08-06T07:14:59;52825.13;;;-140.72;100.00
38197;BME280;26543;51.976;4.616;2023-08-06T07:17:24;52790.63;;;-140.72;100.00
38197;BME280;26543;51.976;4.616;2023-08-06T07:19:49;52788.59;;;-140.72;100.00
38197;BME280;26543;51.976;4.616;2023-08-06T07:22:14;52808.88;;;-140.72;100.00
38197;BME280;26543;51.976;4.616;2023-08-06T07:24:40;52792.66;;;-140.72;100.00
38197;BME280;26543;51.976;4.616;2023-08-06T07:27:05;52817.00;;;-140.72;100.00
38197;BME280;26543;51.976;4.616;2023-08-06T07:29:30;52780.47;;;-140.72;100.00
38197;BME280;26543;51.976;4.616;2023-08-06T07:31:56;52772.34;;;-140.72;100.00
38197;BME280;26543;51.976;4.616;2023-08-06T07:34:21;52764.25;;;-140.72;100.00
38197;BME280;26543;51.976;4.616;2023-08-06T07:36:46;52790.63;;;-140.72;100.00
38197;BME280;26543;51.976;4.616;2023-08-06T07:39:11;52790.63;;;-140.72;100.00
38197;BME280;26543;51.976;4.616;2023-08-06T07:41:37;52810.91;;;-140.72;100.00
38197;BME280;26543;51.976;4.616;2023-08-06T07:44:02;52741.91;;;-140.72;100.00
38197;BME280;26543;51.976;4.616;2023-08-06T07:46:27;52790.63;;;-140.72;100.00
38197;BME280;26543;51.976;4.616;2023-08-06T07:48:52;52768.28;;;-140.72;100.00
38197;BME280;26543;51.976;4.616;2023-08-06T07:51:18;52772.34;;;-140.72;100.00
38197;BME280;26543;51.976;4.616;2023-08-06T07:53:43;52780.47;;;-140.72;100.00
38197;BME280;26543;51.976;4.616;2023-08-06T07:56:08;52756.13;;;-140.72;100.00
38197;BME280;26543;51.976;4.616;2023-08-06T07:58:33;52780.47;;;-140.72;100.00
38197;BME280;26543;51.976;4.616;2023-08-06T08:00:59;52752.06;;;-140.72;100.00
38197;BME280;26543;51.976;4.616;2023-08-06T08:03:24;52776.41;;;-140.72;100.00
38197;BME280;26543;51.976;4.616;2023-08-06T08:05:50;52764.25;;;-140.72;100.00
38197;BME280;26543;51.976;4.616;2023-08-06T08:08:17;52772.34;;;-140.72;100.00
38197;BME280;26543;51.976;4.616;2023-08-06T08:10:42;52760.19;;;-140.72;100.00
38197;BME280;26543;51.976;4.616;2023-08-06T08:13:07;52709.44;;;-140.72;100.00
38197;BME280;26543;51.976;4.616;2023-08-06T08:15:33;52762.22;;;-140.72;100.00
38197;BME280;26543;51.976;4.616;2023-08-06T08:17:59;52733.78;;;-140.72;100.00
38197;BME280;26543;51.976;4.616;2023-08-06T08:20:24;52739.88;;;-140.72;100.00
38197;BME280;26543;51.976;4.616;2023-08-06T08:22:49;52725.69;;;-140.72;100.00
38197;BME280;26543;51.976;4.616;2023-08-06T08:25:15;52721.63;;;-140.72;100.00
38197;BME280;26543;51.976;4.616;2023-08-06T08:27:40;52743.94;;;-140.72;100.00
38197;BME280;26543;51.976;4.616;2023-08-06T08:30:06;52731.75;;;-140.72;100.00
38197;BME280;26543;51.976;4.616;2023-08-06T08:32:31;52707.41;;;-140.72;100.00
38197;BME280;26543;51.976;4.616;2023-08-06T08:34:56;52703.34;;;-140.72;100.00
38197;BME280;26543;51.976;4.616;2023-08-06T08:37:22;52764.25;;;-140.72;100.00
38197;BME280;26543;51.976;4.616;2023-08-06T08:39:48;52804.81;;;-140.72;100.00
38197;BME280;26543;51.976;4.616;2023-08-06T08:42:13;52721.63;;;-140.72;100.00
38197;BME280;26543;51.976;4.616;2023-08-06T08:44:39;52756.13;;;-140.72;100.00
38197;BME280;26543;51.976;4.616;2023-08-06T08:47:05;52750.03;;;-140.72;100.00
38197;BME280;26543;51.976;4.616;2023-08-06T08:49:31;52729.75;;;-140.72;100.00
38197;BME280;26543;51.976;4.616;2023-08-06T08:51:57;52752.06;;;-140.72;100.00
38197;BME280;26543;51.976;4.616;2023-08-06T08:54:23;52741.91;;;-140.72;100.00
38197;BME280;26543;51.976;4.616;2023-08-06T08:56:49;52699.31;;;-140.72;100.00
38197;BME280;26543;51.976;4.616;2023-08-06T08:59:14;52764.25;;;-140.72;100.00
38197;BME280;26543;51.976;4.616;2023-08-06T09:01:39;52727.72;;;-140.72;100.00
38197;BME280;26543;51.976;4.616;2023-08-06T09:04:05;52754.09;;;-140.72;100.00
38197;BME280;26543;51.976;4.616;2023-08-06T09:06:30;52697.28;;;-140.72;100.00
38197;BME280;26543;51.976;4.616;2023-08-06T09:09:09;52695.25;;;-140.72;100.00
38197;BME280;26543;51.976;4.616;2023-08-06T09:11:39;52715.53;;;-140.72;100.00
38197;BME280;26543;51.976;4.616;2023-08-06T09:14:09;52646.53;;;-140.72;100.00
38197;BME280;26543;51.976;4.616;2023-08-06T09:16:34;52660.75;;;-140.72;100.00
38197;BME280;26543;51.976;4.616;2023-08-06T09:19:06;52699.31;;;-140.72;100.00
38197;BME280;26543;51.976;4.616;2023-08-06T09:21:32;52660.75;;;-140.72;100.00
38197;BME280;26543;51.976;4.616;2023-08-06T09:23:58;52670.88;;;-140.72;100.00
38197;BME280;26543;51.976;4.616;2023-08-06T09:26:23;52632.34;;;-140.72;100.00
38197;BME280;26543;51.976;4.616;2023-08-06T09:28:49;52628.28;;;-140.72;100.00
38197;BME280;26543;51.976;4.616;2023-08-06T09:31:17;52638.41;;;-140.72;100.00
38197;BME280;26543;51.976;4.616;2023-08-06T09:33:42;52654.66;;;-140.72;100.00
38197;BME280;26543;51.976;4.616;2023-08-06T09:36:12;52634.38;;;-140.72;100.00
38197;BME280;26543;51.976;4.616;2023-08-06T09:38:38;52626.25;;;-140.72;100.00
38197;BME280;26543;51.976;4.616;2023-08-06T09:41:06;52597.84;;;-140.72;100.00
38197;BME280;26543;51.976;4.616;2023-08-06T09:43:41;52622.19;;;-140.72;100.00
38197;BME280;26543;51.976;4.616;2023-08-06T09:46:11;52622.19;;;-140.72;100.00
38197;BME280;26543;51.976;4.616;2023-08-06T09:48:38;52614.06;;;-140.72;100.00
38197;BME280;26543;51.976;4.616;2023-08-06T09:51:03;52565.38;;;-140.72;100.00
38197;BME280;26543;51.976;4.616;2023-08-06T09:53:29;52630.31;;;-140.72;100.00
38197;BME280;26543;51.976;4.616;2023-08-06T09:55:54;52595.81;;;-140.72;100.00
38197;BME280;26543;51.976;4.616;2023-08-06T09:58:21;52648.56;;;-140.72;100.00
38197;BME280;26543;51.976;4.616;2023-08-06T10:00:47;52603.94;;;-140.72;100.00
38197;BME280;26543;51.976;4.616;2023-08-06T10:03:12;52587.69;;;-140.72;100.00
38197;BME280;26543;51.976;4.616;2023-08-06T10:05:39;52573.50;;;-140.72;100.00
38197;BME280;26543;51.976;4.616;2023-08-06T10:08:05;52593.78;;;-140.72;100.00
38197;BME280;26543;51.976;4.616;2023-08-06T10:10:31;52593.78;;;-140.72;100.00
38197;BME280;26543;51.976;4.616;2023-08-06T10:12:57;52585.66;;;-140.72;100.00
38197;BME280;26543;51.976;4.616;2023-08-06T10:15:24;52583.63;;;-140.72;100.00
38197;BME280;26543;51.976;4.616;2023-08-06T10:17:50;52573.50;;;-140.72;100.00
38197;BME280;26543;51.976;4.616;2023-08-06T10:20:16;52512.59;;;-140.72;100.00
38197;BME280;26543;51.976;4.616;2023-08-06T10:22:43;52492.31;;;-140.72;100.00
38197;BME280;26543;51.976;4.616;2023-08-06T10:25:09;52484.19;;;-140.72;100.00
38197;BME280;26543;51.976;4.616;2023-08-06T10:27:36;52431.44;;;-140.72;34.11
38197;BME280;26543;51.976;4.616;2023-08-06T10:30:20;52484.19;;;-140.72;32.45
38197;BME280;26543;51.976;4.616;2023-08-06T10:32:47;52524.78;;;-140.72;36.34
38197;BME280;26543;51.976;4.616;2023-08-06T10:35:27;52500.44;;;-140.72;56.89
38197;BME280;26543;51.976;4.616;2023-08-06T10:37:52;52409.13;;;-140.72;45.82
38197;BME280;26543;51.976;4.616;2023-08-06T10:40:20;52305.63;;;-140.72;20.66
38197;BME280;26543;51.976;4.616;2023-08-06T10:42:46;52388.84;;;-140.72;0.00
38197;BME280;26543;51.976;4.616;2023-08-06T10:45:11;52362.44;;;-140.72;0.00
38197;BME280;26543;51.976;4.616;2023-08-06T10:47:38;52415.22;;;-140.72;0.00
38197;BME280;26543;51.976;4.616;2023-08-06T10:50:07;52461.88;;;-140.72;0.00
38197;BME280;26543;51.976;4.616;2023-08-06T10:52:32;52463.91;;;-140.72;0.00
38197;BME280;26543;51.976;4.616;2023-08-06T10:54:58;52451.72;;;-140.72;0.00
38197;BME280;26543;51.976;4.616;2023-08-06T10:57:23;52386.81;;;-140.72;0.00
38197;BME280;26543;51.976;4.616;2023-08-06T10:59:49;52398.97;;;-140.72;0.00
38197;BME280;26543;51.976;4.616;2023-08-06T11:02:14;52417.25;;;-140.72;0.00
38197;BME280;26543;51.976;4.616;2023-08-06T11:04:39;52435.50;;;-140.72;0.00
38197;BME280;26543;51.976;4.616;2023-08-06T11:07:06;52396.94;;;-140.72;0.00
38197;BME280;26543;51.976;4.616;2023-08-06T11:09:32;52305.63;;;-140.72;0.00
38197;BME280;26543;51.976;4.616;2023-08-06T11:11:57;52362.44;;;-140.72;0.00
38197;BME280;26543;51.976;4.616;2023-08-06T11:14:22;52334.03;;;-140.72;0.00
38197;BME280;26543;51.976;4.616;2023-08-06T11:16:47;52273.19;;;-140.72;0.00
38197;BME280;26543;51.976;4.616;2023-08-06T11:19:13;52275.19;;;-140.72;0.00
38197;BME280;26543;51.976;4.616;2023-08-06T11:21:40;52392.88;;;-140.72;0.00
38197;BME280;26543;51.976;4.616;2023-08-06T11:24:05;52358.41;;;-140.72;0.00
38197;BME280;26543;51.976;4.616;2023-08-06T11:26:31;52269.13;;;-140.72;0.00
38197;BME280;26543;51.976;4.616;2023-08-06T11:28:56;52275.19;;;-140.72;0.00
38197;BME280;26543;51.976;4.616;2023-08-06T11:31:21;52289.41;;;-140.72;0.00
38197;BME280;26543;51.976;4.616;2023-08-06T11:33:47;52216.34;;;-140.72;0.00
38197;BME280;26543;51.976;4.616;2023-08-06T11:36:12;52208.25;;;-140.72;0.00
38197;BME280;26543;51.976;4.616;2023-08-06T11:38:38;52145.34;;;-140.72;0.00
38197;BME280;26543;51.976;4.616;2023-08-06T11:41:03;52139.25;;;-140.72;0.00
38197;BME280;26543;51.976;4.616;2023-08-06T11:43:30;52202.16;;;-140.72;0.00
38197;BME280;26543;51.976;4.616;2023-08-06T11:45:55;52161.56;;;-140.72;0.00
38197;BME280;26543;51.976;4.616;2023-08-06T11:48:21;52137.22;;;-140.72;0.00
38197;BME280;26543;51.976;4.616;2023-08-06T11:50:46;52204.19;;;-140.72;0.00
38197;BME280;26543;51.976;4.616;2023-08-06T11:53:12;52240.72;;;-140.72;0.00
38197;BME280;26543;51.976;4.616;2023-08-06T11:55:38;52161.56;;;-140.72;0.00
38197;BME280;26543;51.976;4.616;2023-08-06T11:58:04;52224.47;;;-140.72;0.00
38197;BME280;26543;51.976;4.616;2023-08-06T12:00:32;52088.53;;;-140.72;0.00
38197;BME280;26543;51.976;4.616;2023-08-06T12:02:57;52033.75;;;-140.72;0.00
38197;BME280;26543;51.976;4.616;2023-08-06T12:05:23;52033.75;;;-140.72;0.00
38197;BME280;26543;51.976;4.616;2023-08-06T12:07:52;52066.22;;;-140.72;0.00
38197;BME280;26543;51.976;4.616;2023-08-06T12:10:18;52106.78;;;-140.72;0.00
38197;BME280;26543;51.976;4.616;2023-08-06T12:12:47;52043.91;;;-140.72;0.00
38197;BME280;26543;51.976;4.616;2023-08-06T12:15:13;52041.88;;;-140.72;0.00
38197;BME280;26543;51.976;4.616;2023-08-06T12:17:38;52147.38;;;-140.72;0.00
38197;BME280;26543;51.976;4.616;2023-08-06T12:20:04;52189.97;;;-140.72;0.00
38197;BME280;26543;51.976;4.616;2023-08-06T12:22:29;52246.78;;;-140.72;0.00
38197;BME280;26543;51.976;4.616;2023-08-06T12:24:59;52332.03;;;-140.72;0.00
38197;BME280;26543;51.976;4.616;2023-08-06T12:27:25;52269.13;;;-140.72;0.00
38197;BME280;26543;51.976;4.616;2023-08-06T12:29:50;52151.44;;;-140.72;0.00
38197;BME280;26543;51.976;4.616;2023-08-06T12:32:15;52194.03;;;-140.72;0.00